EW9766 Weather Reports


Display with metric or nautical units.
time (UTC)temp
F
wind
direction
speed
MPH
gust
MPH
rain 1hr
in
rain 24hr
in
rain mn
in
humidity
%
barometer
mb
20210928071532 45 246 1.0 0.0 0.00 0.22 0.00 88 1014.9
20210928070041 44 220 3.0 0.0 0.00 0.22 0.00 87 1014.9
20210928064533 45 223 1.0 0.0 0.00 0.22 0.22 86 1014.5
20210928063036 45 99 3.0 0.0 0.00 0.22 0.22 87 1014.5
20210928061531 44 75 1.0 0.0 0.00 0.22 0.22 87 1014.1
20210928060041 43 118 1.0 0.0 0.00 0.22 0.22 87 1014.1
20210928054534 44 65 2.0 0.0 0.00 0.22 0.22 85 1014.1
20210928053037 45 298 1.0 0.0 0.00 0.23 0.22 83 1014.1
20210928051540 46 208 3.0 0.0 0.00 0.23 0.22 82 1013.8
20210928050039 46 214 3.0 0.0 0.00 0.23 0.22 82 1014.1
20210928044539 47 246 4.0 0.0 0.00 0.23 0.22 82 1013.8
20210928043036 47 239 3.0 0.0 0.00 0.23 0.22 83 1013.8
20210928041542 47 255 6.0 0.0 0.00 0.23 0.22 86 1013.8
20210928040035 46 220 4.0 0.0 0.00 0.23 0.22 88 1013.4
20210928034538 46 191 1.0 0.0 0.00 0.23 0.22 88 1013.4
20210928033033 47 189 2.0 0.0 0.00 0.23 0.22 87 1013.1
20210928031533 47 311 2.0 0.0 0.00 0.23 0.22 86 1012.7
20210928030037 47 352 4.0 0.0 0.00 0.23 0.22 86 1012.3
20210928024537 47 332 3.0 0.0 0.00 0.23 0.22 88 1012.7
20210928023031 46 336 2.0 0.0 0.00 0.23 0.22 89 1012.3
20210928021532 46 317 2.0 0.0 0.00 0.23 0.22 90 1013.1
20210928020037 47 149 1.0 0.0 0.00 0.23 0.22 89 1012.7
20210928014543 47 309 1.0 0.0 0.00 0.23 0.22 88 1012.3
20210928013036 47 224 0.0 0.0 0.00 0.23 0.22 86 1012.0
20210928011536 48 332 3.0 0.0 0.00 0.23 0.22 85 1011.6
20210928010037 48 5 2.0 0.0 0.00 0.23 0.22 86 1012.0
20210928004535 48 288 2.0 0.0 0.00 0.23 0.22 85 1012.3
20210928003042 48 222 3.0 0.0 0.01 0.23 0.22 86 1012.3
20210928001533 48 206 4.0 0.0 0.02 0.23 0.22 86 1012.0
20210928000039 48 226 5.0 0.0 0.03 0.23 0.22 87 1012.0
20210927234529 48 225 7.0 0.0 0.04 0.23 0.22 88 1012.0
20210927233035 49 225 5.0 0.0 0.03 0.22 0.21 89 1012.0
20210927231542 50 238 4.0 0.0 0.02 0.21 0.20 92 1012.0
20210927230042 50 312 1.0 0.0 0.02 0.20 0.19 93 1012.0
20210927224534 51 34 2.0 0.0 0.01 0.19 0.18 93 1012.0
20210927223103 51 336 3.0 0.0 0.01 0.19 0.18 93 1011.6
20210927221537 51 305 3.0 0.0 0.01 0.19 0.18 93 1011.2
20210927220045 51 60 1.0 0.0 0.03 0.18 0.17 92 1011.6
20210927214534 51 2 3.0 0.0 0.03 0.18 0.17 91 1011.2
20210927213033 51 340 2.0 0.0 0.03 0.18 0.17 90 1010.9
20210927211549 51 20 5.0 0.0 0.03 0.18 0.17 88 1010.9
20210927210037 52 21 4.0 0.0 0.00 0.15 0.14 87 1010.9
20210927204537 52 19 3.0 0.0 0.00 0.15 0.14 87 1010.9
20210927203035 52 12 3.0 0.0 0.00 0.15 0.14 85 1011.2
20210927201530 53 16 5.0 0.0 0.00 0.15 0.14 85 1011.2
20210927200040 53 322 4.0 0.0 0.00 0.15 0.14 86 1011.2
20210927194529 53 251 2.0 0.0 0.00 0.15 0.14 88 1011.6
20210927193049 54 1 4.0 0.0 0.00 0.15 0.14 89 1011.6
20210927191533 52 32 1.0 0.0 0.00 0.15 0.14 91 1011.6
20210927190038 52 42 3.0 0.0 0.00 0.15 0.14 91 1011.6
20210927184534 52 7 4.0 0.0 0.01 0.15 0.14 92 1012.0
20210927183032 52 325 4.0 0.0 0.01 0.15 0.14 92 1012.0
20210927181532 52 314 3.0 0.0 0.01 0.15 0.14 93 1012.0
20210927180037 51 329 3.0 0.0 0.01 0.15 0.14 93 1011.6
20210927174533 51 353 3.0 0.0 0.00 0.14 0.13 93 1012.0
20210927173032 52 322 3.0 0.0 0.01 0.14 0.13 93 1012.0
20210927171536 51 360 4.0 0.0 0.01 0.14 0.13 94 1012.0
20210927170046 51 360 2.0 0.0 0.01 0.14 0.13 95 1012.3
20210927164541 51 201 1.0 0.0 0.03 0.14 0.13 95 1012.3
20210927163034 51 3 2.0 0.0 0.02 0.13 0.12 95 1012.0
20210927161546 51 1 6.0 0.0 0.03 0.13 0.12 95 1011.2
20210927160037 51 49 3.0 0.0 0.06 0.13 0.12 95 1011.2
20210927154532 52 15 4.0 0.0 0.05 0.11 0.10 95 1011.6
20210927153037 52 6 4.0 0.0 0.09 0.11 0.10 94 1011.2
20210927151533 52 3 3.0 0.0 0.08 0.10 0.09 94 1011.2
20210927150037 52 3 2.0 0.0 0.05 0.07 0.06 94 1011.2
20210927144541 52 327 0.0 0.0 0.04 0.06 0.05 93 1010.9
20210927143047 52 300 2.0 0.0 0.01 0.02 0.01 93 1010.9
20210927141537 52 321 2.0 0.0 0.01 0.02 0.01 93 1010.5
20210927140032 53 273 1.0 0.0 0.01 0.02 0.01 93 1010.5
20210927134540 53 39 4.0 0.0 0.01 0.02 0.01 94 1010.9
20210927133030 53 50 3.0 0.0 0.00 0.01 0.00 93 1010.9
20210927131531 53 15 4.0 0.0 0.00 0.01 0.00 93 1010.9
20210927130059 54 329 3.0 0.0 0.00 0.01 0.00 93 1010.9
20210927124531 54 4 3.0 0.0 0.00 0.01 0.00 93 1010.2
20210927123031 53 36 3.0 0.0 0.00 0.01 0.00 94 1010.2
20210927121529 53 124 1.0 0.0 0.00 0.01 0.00 94 1010.2
20210927120054 53 14 2.0 0.0 0.00 0.01 0.00 94 1010.2
20210927114534 53 237 2.0 0.0 0.00 0.01 0.00 94 1010.2
20210927113034 54 245 1.0 0.0 0.00 0.01 0.00 94 1010.2
20210927111536 54 229 2.0 0.0 0.00 0.01 0.00 94 1010.5
20210927110038 54 75 0.0 0.0 0.00 0.01 0.00 94 1010.5
20210927104543 54 185 3.0 0.0 0.00 0.01 0.00 94 1010.5
20210927103038 54 200 1.0 0.0 0.00 0.01 0.00 94 1010.9
20210927101539 54 276 1.0 0.0 0.00 0.01 0.00 94 1010.9
20210927100039 55 286 1.0 0.0 0.00 0.01 0.00 93 1010.9
20210927094532 55 154 1.0 0.0 0.00 0.01 0.00 93 1010.9
20210927093050 55 269 1.0 0.0 0.00 0.01 0.00 93 1010.9
20210927091542 55 48 3.0 0.0 0.00 0.01 0.00 92 1010.9
20210927090039 56 330 4.0 0.0 0.00 0.01 0.00 92 1010.9
20210927084539 55 338 3.0 0.0 0.00 0.01 0.00 92 1010.9
20210927083034 56 182 2.0 0.0 0.00 0.01 0.00 92 1010.9
20210927081540 56 202 4.0 0.0 0.00 0.01 0.00 92 1010.5
20210927080114 56 308 2.0 0.0 0.00 0.01 0.00 92 1010.5
20210927074534 56 337 1.0 0.0 0.00 0.01 0.00 92 1010.9
20210927073036 55 312 1.0 0.0 0.00 0.01 0.00 92 1010.9